createdAt,value
2023-03-26T00:00:01.912Z,99293.14
2023-03-26T00:03:32.522Z,99300.73
2023-03-26T00:07:00.142Z,99296.52
2023-03-26T00:10:27.796Z,99298.20
2023-03-26T00:13:57.082Z,99299.69
2023-03-26T00:17:25.214Z,99303.44
2023-03-26T00:20:55.314Z,99305.34
2023-03-26T00:24:29.870Z,99295.78
2023-03-26T00:27:57.350Z,99292.30
2023-03-26T00:31:24.597Z,99285.20
2023-03-26T00:34:52.142Z,99281.02
2023-03-26T00:38:19.344Z,99276.70
2023-03-26T00:41:46.503Z,99270.63
2023-03-26T00:45:14.215Z,99264.90
2023-03-26T00:48:45.744Z,99263.65
2023-03-26T00:52:14.264Z,99264.86
2023-03-26T00:55:41.751Z,99264.02
2023-03-26T00:59:09.455Z,99254.84
2023-03-26T01:02:36.981Z,99251.23
2023-03-26T01:06:08.146Z,99251.94
2023-03-26T01:09:43.086Z,99248.13
2023-03-26T01:13:10.980Z,99246.95
2023-03-26T01:16:41.619Z,99248.36
2023-03-26T01:20:17.705Z,99249.79
2023-03-26T01:23:49.052Z,99249.80
2023-03-26T01:27:29.249Z,99247.23
2023-03-26T01:31:02.709Z,99242.90
2023-03-26T01:34:38.987Z,99240.16
2023-03-26T01:38:14.843Z,99241.73
2023-03-26T01:41:48.170Z,99242.09
2023-03-26T01:45:21.500Z,99244.89
2023-03-26T01:48:49.591Z,99244.75
2023-03-26T01:52:20.573Z,99241.63
2023-03-26T01:55:57.443Z,99238.15
2023-03-26T01:59:38.473Z,99236.06
2023-03-26T02:03:18.932Z,99236.58
2023-03-26T02:06:52.638Z,99237.23
2023-03-26T02:10:25.609Z,99236.67
2023-03-26T02:13:54.398Z,99233.33
2023-03-26T02:17:24.434Z,99235.40
2023-03-26T02:20:53.175Z,99233.66
2023-03-26T02:24:20.899Z,99236.10
2023-03-26T02:27:50.368Z,99236.31
2023-03-26T02:31:21.836Z,99230.27
2023-03-26T02:34:51.389Z,99228.71
2023-03-26T02:38:19.606Z,99228.39
2023-03-26T02:41:46.717Z,99227.89
2023-03-26T02:45:14.121Z,99227.58
2023-03-26T02:49:13.390Z,99223.46
2023-03-26T02:52:43.523Z,99222.46
2023-03-26T02:56:12.693Z,99220.06
2023-03-26T02:59:50.425Z,99217.66
2023-03-26T03:03:36.477Z,99215.58
2023-03-26T03:07:26.941Z,99213.69
2023-03-26T03:11:01.927Z,99215.24
2023-03-26T03:14:39.127Z,99215.24
2023-03-26T03:18:06.593Z,99217.33
2023-03-26T03:21:34.020Z,99219.07
2023-03-26T03:25:01.098Z,99218.02
2023-03-26T03:28:28.630Z,99219.59
2023-03-26T03:31:56.063Z,99219.76
2023-03-26T03:35:46.136Z,99221.49
2023-03-26T03:39:13.292Z,99222.88
2023-03-26T03:42:40.905Z,99224.95
2023-03-26T03:46:08.723Z,99227.38
2023-03-26T03:49:39.151Z,99225.80
2023-03-26T03:53:06.759Z,99224.90
2023-03-26T03:56:36.118Z,99228.89
2023-03-26T04:00:26.835Z,99230.11
2023-03-26T04:04:04.741Z,99230.62
2023-03-26T04:07:51.431Z,99229.23
2023-03-26T04:11:37.818Z,99227.71
2023-03-26T04:15:27.727Z,99230.14
2023-03-26T04:18:54.951Z,99230.31
2023-03-26T04:22:22.612Z,99226.69
2023-03-26T04:25:57.014Z,99224.61
2023-03-26T04:29:38.480Z,99226.02
2023-03-26T04:33:07.449Z,99224.95
2023-03-26T04:36:40.858Z,99226.52
2023-03-26T04:40:12.671Z,99230.83
2023-03-26T04:43:51.623Z,99228.58
2023-03-26T04:47:29.230Z,99227.70
2023-03-26T04:50:56.529Z,99229.44
2023-03-26T04:54:25.665Z,99227.52
2023-03-26T04:58:03.437Z,99229.08
2023-03-26T05:02:09.729Z,99228.89
2023-03-26T05:05:46.276Z,99223.69
2023-03-26T05:09:14.474Z,99228.55
2023-03-26T05:13:01.896Z,99232.86
2023-03-26T05:16:42.164Z,99229.75
2023-03-26T05:20:16.940Z,99228.88
2023-03-26T05:23:44.088Z,99229.75
2023-03-26T05:27:20.178Z,99232.54
2023-03-26T05:30:47.617Z,99235.83
2023-03-26T05:34:14.893Z,99237.56
2023-03-26T05:37:44.354Z,99240.73
2023-03-26T05:41:12.374Z,99245.75
2023-03-26T05:44:41.680Z,99248.71
2023-03-26T05:48:15.566Z,99246.98
2023-03-26T05:51:42.763Z,99251.25
2023-03-26T05:55:29.071Z,99250.34
2023-03-26T05:59:35.326Z,99246.71
2023-03-26T06:03:23.397Z,99253.83
2023-03-26T06:07:11.157Z,99259.12
2023-03-26T06:10:40.331Z,99263.52
2023-03-26T06:14:08.069Z,99265.59
2023-03-26T06:17:37.929Z,99267.67
2023-03-26T06:21:31.702Z,99275.29
2023-03-26T06:25:17.859Z,99274.98
2023-03-26T06:28:54.510Z,99279.18
2023-03-26T06:32:43.316Z,99288.45
2023-03-26T06:36:15.222Z,99292.85
2023-03-26T06:39:42.521Z,99290.20
2023-03-26T06:43:20.892Z,99295.86
2023-03-26T06:47:07.936Z,99291.33
2023-03-26T06:50:51.211Z,99292.86
2023-03-26T06:54:41.593Z,99300.27
2023-03-26T06:58:44.062Z,99301.37
2023-03-26T07:02:29.901Z,99301.58
2023-03-26T07:06:17.671Z,99310.11
2023-03-26T07:10:03.469Z,99310.48
2023-03-26T07:13:40.040Z,99314.52
2023-03-26T07:17:30.944Z,99308.82
2023-03-26T07:21:14.898Z,99311.98
2023-03-26T07:24:41.289Z,99314.64
2023-03-26T07:28:21.873Z,99319.57
2023-03-26T07:32:04.459Z,99314.73
2023-03-26T07:36:14.921Z,99313.19
2023-03-26T07:39:58.865Z,99319.98
2023-03-26T07:44:14.859Z,99317.20
2023-03-26T07:48:04.647Z,99321.71
2023-03-26T07:53:36.420Z,99321.39
2023-03-26T07:57:24.896Z,99317.02
2023-03-26T08:01:06.237Z,99310.52
2023-03-26T08:05:19.851Z,99311.52
2023-03-26T08:09:20.642Z,99311.39
2023-03-26T08:13:18.714Z,99307.44
2023-03-26T08:16:52.339Z,99309.54
2023-03-26T08:20:32.179Z,99310.80
2023-03-26T08:24:01.741Z,99306.84
2023-03-26T08:27:38.639Z,99314.70
2023-03-26T08:31:06.498Z,99315.81
2023-03-26T08:34:33.558Z,99316.19
2023-03-26T08:38:00.886Z,99310.10
2023-03-26T08:42:16.210Z,99306.98
2023-03-26T08:46:02.617Z,99304.06
2023-03-26T08:50:22.130Z,99313.35
2023-03-26T08:54:08.394Z,99317.84
2023-03-26T08:57:58.166Z,99311.77
2023-03-26T09:01:55.041Z,99306.55
2023-03-26T09:10:05.480Z,99304.79
2023-03-26T09:13:56.963Z,99307.05
2023-03-26T09:17:51.635Z,99303.98
2023-03-26T09:22:09.456Z,99307.35
2023-03-26T09:26:01.526Z,99310.91
2023-03-26T09:29:58.788Z,99314.08
2023-03-26T09:34:00.310Z,99315.70
2023-03-26T09:37:56.331Z,99305.59
2023-03-26T09:41:42.741Z,99311.20
2023-03-26T09:45:45.064Z,99304.55
2023-03-26T09:49:36.407Z,99301.10
2023-03-26T09:53:23.608Z,99303.15
2023-03-26T09:56:58.924Z,99299.71
2023-03-26T10:00:33.921Z,99299.45
2023-03-26T10:04:16.225Z,99298.50
2023-03-26T10:08:10.415Z,99303.26
2023-03-26T10:11:59.253Z,99310.42
2023-03-26T10:15:42.252Z,99321.30
2023-03-26T10:19:32.717Z,99327.66
2023-03-26T10:23:10.028Z,99329.23
2023-03-26T10:27:10.985Z,99327.84
2023-03-26T10:31:01.914Z,99337.09
2023-03-26T10:35:04.760Z,99335.52
2023-03-26T10:38:52.711Z,99325.91
2023-03-26T10:42:42.088Z,99327.66
2023-03-26T10:46:40.898Z,99330.11
2023-03-26T10:50:33.438Z,99324.33
2023-03-26T10:54:04.130Z,99320.07
2023-03-26T10:57:49.147Z,99311.12
2023-03-26T11:01:31.546Z,99307.73
2023-03-26T11:05:15.483Z,99311.26
2023-03-26T11:08:48.304Z,99315.15
2023-03-26T11:12:26.416Z,99308.81
2023-03-26T11:16:01.560Z,99308.55
2023-03-26T11:19:35.006Z,99311.88
2023-03-26T11:23:17.567Z,99304.11
2023-03-26T11:26:56.114Z,99302.78
2023-03-26T11:30:37.671Z,99299.40
2023-03-26T11:34:10.863Z,99296.44
2023-03-26T11:37:43.725Z,99300.98
2023-03-26T11:41:17.250Z,99296.21
2023-03-26T11:45:00.346Z,99297.99
2023-03-26T11:48:41.796Z,99297.66
2023-03-26T11:52:11.268Z,99297.22
2023-03-26T11:55:41.156Z,99301.73
2023-03-26T11:59:11.396Z,99299.66
2023-03-26T12:02:42.930Z,99300.60
2023-03-26T12:06:23.881Z,99305.18
2023-03-26T12:09:57.254Z,99307.75
2023-03-26T12:13:52.684Z,99310.71
2023-03-26T12:17:32.927Z,99315.15
2023-03-26T12:21:09.287Z,99313.10
2023-03-26T12:24:37.696Z,99313.90
2023-03-26T12:28:07.488Z,99317.14
2023-03-26T12:31:46.846Z,99316.13
2023-03-26T12:35:19.805Z,99307.07
2023-03-26T12:39:16.310Z,99303.39
2023-03-26T12:44:44.458Z,99295.48
2023-03-26T12:47:55.464Z,99281.59
2023-03-26T12:50:18.362Z,99274.14
2023-03-26T12:54:24.601Z,99270.27
2023-03-26T12:57:59.975Z,99268.67
2023-03-26T13:01:51.087Z,99268.94
2023-03-26T13:09:34.699Z,99263.14
2023-03-26T13:13:19.851Z,99258.85
2023-03-26T13:16:56.906Z,99251.52
2023-03-26T13:20:33.148Z,99245.91
2023-03-26T13:24:08.317Z,99246.33
2023-03-26T13:27:43.109Z,99247.40
2023-03-26T13:31:20.609Z,99244.72
2023-03-26T13:35:02.003Z,99247.05
2023-03-26T13:38:40.714Z,99246.37
2023-03-26T13:42:40.593Z,99248.61
2023-03-26T13:46:16.593Z,99250.07
2023-03-26T13:49:49.200Z,99256.67
2023-03-26T13:53:19.470Z,99256.55
2023-03-26T13:56:51.660Z,99252.05
2023-03-26T14:00:26.779Z,99255.77
2023-03-26T14:04:00.302Z,99254.41
2023-03-26T14:07:33.964Z,99254.21
2023-03-26T14:11:07.728Z,99251.83
2023-03-26T14:14:41.514Z,99256.52
2023-03-26T14:18:29.428Z,99251.69
2023-03-26T14:22:11.577Z,99253.20
2023-03-26T14:25:58.553Z,99261.20
2023-03-26T14:29:56.288Z,99260.45
2023-03-26T14:33:38.661Z,99258.23
2023-03-26T14:37:27.812Z,99259.23
2023-03-26T14:41:03.309Z,99262.54
2023-03-26T14:44:53.367Z,99258.13
2023-03-26T14:48:59.776Z,99265.02
2023-03-26T14:52:38.623Z,99261.10
2023-03-26T14:56:42.842Z,99259.59
2023-03-26T15:00:40.816Z,99258.27
2023-03-26T15:04:54.021Z,99257.11
2023-03-26T15:08:53.781Z,99261.19
2023-03-26T15:12:35.933Z,99265.58
2023-03-26T15:16:28.016Z,99256.53
2023-03-26T15:20:31.796Z,99259.55
2023-03-26T15:24:41.627Z,99265.16
2023-03-26T15:28:43.095Z,99261.17
2023-03-26T15:32:41.550Z,99261.39
2023-03-26T15:36:44.882Z,99261.22
2023-03-26T15:40:40.448Z,99254.08
2023-03-26T15:44:30.822Z,99255.81
2023-03-26T15:48:16.270Z,99255.12
2023-03-26T15:51:52.227Z,99256.17
2023-03-26T15:55:31.537Z,99251.12
2023-03-26T15:59:07.873Z,99248.16
2023-03-26T16:02:44.642Z,99248.35
2023-03-26T16:06:31.057Z,99244.67
2023-03-26T16:10:16.082Z,99238.75
2023-03-26T16:13:46.262Z,99242.42
2023-03-26T16:17:20.769Z,99248.16
2023-03-26T16:20:54.262Z,99243.11
2023-03-26T16:24:25.691Z,99243.98
2023-03-26T16:28:23.397Z,99242.94
2023-03-26T16:32:16.267Z,99247.45
2023-03-26T16:36:04.616Z,99250.59
2023-03-26T16:39:45.372Z,99247.45
2023-03-26T16:43:39.246Z,99248.63
2023-03-26T16:47:19.397Z,99249.46
2023-03-26T16:50:57.167Z,99246.45
2023-03-26T16:54:38.092Z,99242.38
2023-03-26T16:58:23.746Z,99238.13
2023-03-26T17:02:02.382Z,99243.60
2023-03-26T17:05:45.691Z,99244.17
2023-03-26T17:09:24.892Z,99243.56
2023-03-26T17:13:05.255Z,99246.74
2023-03-26T17:16:42.819Z,99246.45
2023-03-26T17:20:22.561Z,99247.54
2023-03-26T17:24:05.104Z,99245.48
2023-03-26T17:27:39.176Z,99252.48
2023-03-26T17:31:15.934Z,99247.66
2023-03-26T17:34:53.946Z,99249.07
2023-03-26T17:38:59.251Z,99251.52
2023-03-26T17:42:32.805Z,99252.04
2023-03-26T17:46:02.883Z,99256.73
2023-03-26T17:49:34.130Z,99257.42
2023-03-26T17:53:01.337Z,99253.98
2023-03-26T17:56:32.870Z,99252.60
2023-03-26T18:00:01.964Z,99255.53
2023-03-26T18:03:45.152Z,99258.33
2023-03-26T18:07:47.474Z,99261.60
2023-03-26T18:11:37.927Z,99262.10
2023-03-26T18:15:32.098Z,99266.27
2023-03-26T18:19:04.000Z,99267.17
2023-03-26T18:22:32.932Z,99268.59
2023-03-26T18:26:11.114Z,99267.44
2023-03-26T18:29:43.750Z,99267.85
2023-03-26T18:33:16.602Z,99268.77
2023-03-26T18:36:44.956Z,99269.55
2023-03-26T18:40:19.132Z,99266.54
2023-03-26T18:43:46.352Z,99268.57
2023-03-26T18:47:15.277Z,99268.15
2023-03-26T18:50:43.469Z,99269.30
2023-03-26T18:54:16.990Z,99265.44
2023-03-26T18:57:44.990Z,99262.23
2023-03-26T19:01:25.551Z,99257.28
2023-03-26T19:04:57.011Z,99257.52
2023-03-26T19:08:26.310Z,99254.27
2023-03-26T19:11:58.813Z,99261.09
2023-03-26T19:15:28.527Z,99256.81
2023-03-26T19:18:59.024Z,99251.87
2023-03-26T19:22:30.629Z,99253.71
2023-03-26T19:26:01.671Z,99254.16
2023-03-26T19:29:33.646Z,99253.56
2023-03-26T19:33:12.947Z,99250.92
2023-03-26T19:36:58.433Z,99246.62
2023-03-26T19:40:30.074Z,99244.40
2023-03-26T19:44:00.759Z,99241.17
2023-03-26T19:47:43.712Z,99241.93
2023-03-26T19:51:22.353Z,99241.09
2023-03-26T19:55:04.098Z,99241.77
2023-03-26T19:58:31.454Z,99246.54
2023-03-26T20:01:58.723Z,99244.90
2023-03-26T20:05:28.889Z,99246.18
2023-03-26T20:08:56.723Z,99248.54
2023-03-26T20:12:24.506Z,99247.92
2023-03-26T20:19:47.079Z,99245.23
2023-03-26T20:23:17.661Z,99241.98
2023-03-26T20:26:45.052Z,99241.52
2023-03-26T20:30:16.482Z,99243.64
2023-03-26T20:33:46.394Z,99240.08
2023-03-26T20:37:19.892Z,99240.33
2023-03-26T20:40:50.712Z,99240.59
2023-03-26T20:44:20.078Z,99236.72
2023-03-26T20:47:47.725Z,99236.98
2023-03-26T20:51:17.406Z,99238.61
2023-03-26T20:54:43.039Z,99235.58
2023-03-26T20:58:13.408Z,99241.02
2023-03-26T21:01:41.587Z,99241.28
2023-03-26T21:05:14.854Z,99239.09
2023-03-26T21:08:43.347Z,99243.13
2023-03-26T21:12:16.798Z,99243.39
2023-03-26T21:15:44.979Z,99243.31
2023-03-26T21:19:14.620Z,99242.52
2023-03-26T21:22:48.769Z,99244.86
2023-03-26T21:26:22.335Z,99251.77
2023-03-26T21:29:50.593Z,99255.86
2023-03-26T21:33:17.772Z,99257.66
2023-03-26T21:36:47.052Z,99254.16
2023-03-26T21:40:18.331Z,99252.63
2023-03-26T21:43:45.614Z,99253.36
2023-03-26T21:47:14.961Z,99257.52
2023-03-26T21:50:43.257Z,99252.55
2023-03-26T21:54:21.645Z,99251.66
2023-03-26T21:58:12.448Z,99249.15
2023-03-26T22:01:48.568Z,99249.08
2023-03-26T22:05:19.124Z,99250.94
2023-03-26T22:08:47.160Z,99252.64
2023-03-26T22:12:14.653Z,99255.24
2023-03-26T22:15:41.760Z,99260.48
2023-03-26T22:19:10.833Z,99262.39
2023-03-26T22:22:37.968Z,99265.13
2023-03-26T22:26:05.886Z,99272.14
2023-03-26T22:29:33.641Z,99274.45
2023-03-26T22:33:00.826Z,99271.78
2023-03-26T22:36:28.074Z,99278.46
2023-03-26T22:39:55.426Z,99284.27
2023-03-26T22:43:22.754Z,99280.56
2023-03-26T22:46:51.764Z,99281.01
2023-03-26T22:50:19.249Z,99275.41
2023-03-26T22:53:46.733Z,99274.78
2023-03-26T22:57:14.136Z,99272.09
2023-03-26T23:00:41.788Z,99281.29
2023-03-26T23:04:10.014Z,99276.16
2023-03-26T23:07:37.853Z,99278.77
2023-03-26T23:11:08.499Z,99270.91
2023-03-26T23:14:37.579Z,99271.69
2023-03-26T23:18:13.488Z,99281.45
2023-03-26T23:21:41.375Z,99297.18
2023-03-26T23:25:12.982Z,99306.13
2023-03-26T23:28:41.069Z,99314.11
2023-03-26T23:32:24.315Z,99312.05
2023-03-26T23:35:57.112Z,99321.71
2023-03-26T23:39:25.450Z,99329.14
2023-03-26T23:42:52.497Z,99338.34
2023-03-26T23:46:22.160Z,99340.88
2023-03-26T23:49:49.137Z,99348.95
2023-03-26T23:53:16.505Z,99358.23
2023-03-26T23:56:43.526Z,99370.77
